Latest Coastal Weather Observations for Strahan

IDT60701

Issued at 1:11 am EST Thursday 28 May 2020 (issued every 10 minutes, with the page automatically refreshed every 10 minutes)

About coastal observations | Map of coastal stations | Coastal observations for TAS | Marine services | Other Formats
Station Details ID: 097072 Name: STRAHAN AERODROME Lat: -42.16 Lon: 145.29 Height: 21.0 m
Data from the previous 72 hours. | See also: Recent months at Strahan
Date/Time
EST
Wind Sea
Height
m
Swell Vis
km
Cloud Weather Temp
°C
Press
hPa
Rain since
9am
mm
Dir  Spd
kts
Gust
kts
Height
m
Period
s
Dir
28/01:00am N 12 17 - - - - 10 Partly cloudy - 12.0 1015.1 0.2
28/12:30am N 11 17 - - - - 10 Partly cloudy - 11.8 1015.0 0.2
28/12:00am N 9 12 - - - - 10 Mostly cloudy Showers 11.6 1015.2 0.2
 
Date/Time
EST
Wind Sea
Height
m
Swell Vis
km
Cloud Weather Temp
°C
Press
hPa
Rain since
9am
mm
Dir  Spd
kts
Gust
kts
Height
m
Period
s
Dir
27/11:30pm N 12 17 - - - - 10 Partly cloudy - 12.8 1015.2 0.0
27/11:00pm N 13 19 - - - - 10 Cloudy - 12.9 1015.2 0.0
27/10:30pm N 12 16 - - - - 10 Partly cloudy - 13.1 1015.1 0.0
27/10:00pm N 12 19 - - - - 10 Partly cloudy - 13.2 1015.2 0.0
27/09:30pm N 10 14 - - - - 10 Partly cloudy - 13.1 1015.4 0.0
27/09:00pm N 12 15 - - - - 10 Cloudy - 13.2 1015.4 0.0
27/08:30pm NNE 12 19 - - - - 10 Partly cloudy - 13.4 1015.2 0.0
27/08:00pm N 12 18 - - - - 10 Partly cloudy - 13.5 1015.2 0.0
27/07:30pm N 11 21 - - - - 10 Partly cloudy - 13.4 1015.3 0.0
27/07:00pm N 9 17 - - - - 10 Partly cloudy - 13.2 1015.2 0.0
27/06:30pm N 9 13 - - - - 10 Partly cloudy - 13.3 1015.0 0.0
27/06:00pm N 8 11 - - - - 10 Cloudy - 13.2 1015.1 0.0
27/05:30pm N 7 8 - - - - 10 Partly cloudy - 12.9 1015.1 0.0
27/05:00pm N 8 10 - - - - 10 - - 13.3 1015.1 0.0
27/04:30pm N 8 10 - - - - 10 - - 14.1 1015.0 0.0
27/04:00pm N 10 15 - - - - 10 - - 14.9 1014.9 0.0
27/03:30pm N 10 15 - - - - 10 - - 15.4 1014.9 0.0
27/03:00pm N 9 14 - - - - 10 Mostly cloudy - 15.6 1015.1 0.0
27/02:30pm NNE 11 16 - - - - 10 - - 15.9 1015.2 0.0
27/02:00pm NNE 10 14 - - - - 10 - - 17.3 1015.6 0.0
27/01:30pm NNE 11 16 - - - - 10 Partly cloudy - 15.6 1016.0 0.0
27/01:00pm NNE 9 14 - - - - 10 Partly cloudy - 15.0 1016.3 0.0
27/12:30pm N 12 18 - - - - 10 - - 14.8 1016.5 0.0
27/12:00pm NNE 11 16 - - - - 10 Cloudy - 14.8 1016.9 0.0
27/11:30am NNE 13 20 - - - - 10 - - 14.8 1017.3 0.0
27/11:00am NNE 14 19 - - - - 10 - - 14.8 1017.9 0.0
27/10:30am N 14 22 - - - - 10 - - 14.8 1018.1 0.0
27/10:00am NNE 11 18 - - - - 10 - - 13.6 1018.3 0.0
27/09:30am NNE 12 18 - - - - 10 - - 13.2 1018.6 0.0
27/09:00am NNE 11 19 - - - - 10 - - 12.9 1018.8 0.0
27/08:30am NNE 12 16 - - - - 10 - - 12.4 1018.8 0.0
27/08:00am NNE 12 20 - - - - 10 - - 12.2 1018.8 0.0
27/07:30am NNE 12 18 - - - - 10 - - 11.6 1018.8 0.0
27/07:00am NNE 11 15 - - - - 10 - - 11.6 1018.8 0.0
27/06:30am NNE 11 15 - - - - 10 - - 11.4 1018.9 0.0
27/06:00am NNE 11 15 - - - - 10 - - 11.6 1018.8 0.0
27/05:30am NNE 13 19 - - - - 10 - - 12.1 1018.9 0.0
27/05:00am NNE 13 18 - - - - 10 - - 12.1 1018.9 0.0
27/04:30am NNE 15 22 - - - - 10 - - 12.1 1019.0 0.0
27/04:00am NNE 14 23 - - - - 10 - - 11.8 1018.9 0.0
27/03:30am NNE 10 13 - - - - 10 - - 10.3 1019.2 0.0
27/03:00am NNE 8 10 - - - - 10 - - 9.9 1019.4 0.0
27/02:30am NNE 12 19 - - - - 10 - - 11.1 1019.6 0.0
27/02:00am NE 8 12 - - - - 10 - - 9.5 1019.9 0.0
27/01:30am NE 8 11 - - - - 10 - - 9.7 1020.0 0.0
27/01:00am NNE 10 19 - - - - 10 - - 10.3 1020.2 0.0
27/12:30am NE 3 5 - - - - 10 - - 8.7 1020.5 0.0
27/12:00am NNE 5 11 - - - - 10 - - 10.4 1020.8 0.0
 
Date/Time
EST
Wind Sea
Height
m
Swell Vis
km
Cloud Weather Temp
°C
Press
hPa
Rain since
9am
mm
Dir  Spd
kts
Gust
kts
Height
m
Period
s
Dir
26/11:30pm NE 1 4 - - - - 10 - - 8.0 1021.1 0.0
26/11:00pm S 3 5 - - - - 10 - - 5.2 1021.4 0.0
26/10:30pm E 6 7 - - - - 10 - - 4.7 1021.7 0.0
26/10:00pm NNE 1 5 - - - - 10 - - 4.7 1022.4 0.0
26/09:30pm ENE 2 3 - - - - 10 - - 4.5 1022.6 0.0
26/09:00pm NE 5 7 - - - - 10 - - 6.5 1022.9 0.0
26/08:30pm NNE 4 6 - - - - 10 - - 6.7 1023.1 0.0
26/08:00pm N 6 8 - - - - 10 - - 6.4 1023.2 0.0
26/07:30pm NE 8 9 - - - - 10 - - 5.7 1023.0 0.0
26/07:00pm N 3 4 - - - - 10 - - 4.4 1023.3 0.0
26/06:30pm NNE 4 5 - - - - 10 - - 5.9 1023.0 0.0
26/06:00pm ESE 1 4 - - - - 10 - - 7.7 1022.8 0.0
26/05:30pm CALM 0 0 - - - - 10 - - 7.7 1022.7 0.0
26/05:00pm CALM 0 0 - - - - 10 - - 8.9 1022.7 0.0
26/04:30pm SE 1 4 - - - - 10 - - 10.9 1022.9 0.0
26/04:00pm SE 4 5 - - - - 10 - - 11.4 1023.0 0.0
26/03:30pm SSE 6 9 - - - - 10 - - 11.4 1022.9 0.0
26/03:00pm SE 9 11 - - - - 10 - - 11.3 1023.0 0.0
26/02:30pm SSE 7 9 - - - - 10 - - 12.2 1023.3 0.0
26/02:00pm S 5 6 - - - - 10 - - 12.2 1023.6 0.0
26/01:30pm ESE 7 10 - - - - 10 - - 12.0 1023.7 0.0
26/01:00pm E 3 6 - - - - 10 - - 12.9 1024.4 0.0
26/12:30pm ESE 5 8 - - - - 10 - - 12.1 1024.9 0.0
26/12:00pm E 6 8 - - - - 10 - - 11.2 1025.4 0.0
26/11:30am E 5 6 - - - - 10 - - 10.0 1026.3 0.0
26/11:00am E 5 6 - - - - 10 - - 9.2 1026.7 0.0
26/10:30am ESE 3 5 - - - - 10 - - 8.2 1026.9 0.0
26/10:00am E 5 7 - - - - 10 Partly cloudy - 7.1 1026.9 0.0
26/09:56am E 5 7 - - - - 10 Partly cloudy - 6.9 1026.9 0.0
26/09:51am E 4 6 - - - - 10 Partly cloudy - 6.6 1026.9 0.0
26/09:30am E 3 4 - - - - 1 Cloudy - 5.6 1027.0 0.0
26/09:00am E 5 5 - - - - 0.2 Cloudy Rain 4.1 1027.0 0.2
26/08:34am ENE 5 6 - - - - 3 Partly cloudy - 3.5 1026.9 0.2
26/08:32am ENE 5 6 - - - - 9 Partly cloudy - 3.6 1026.8 0.2
26/08:30am ENE 5 6 - - - - 10 Partly cloudy - 3.5 1026.8 0.2
26/08:00am NNE 3 4 - - - - 10 - - 2.5 1026.7 0.2
26/07:30am NNE 2 5 - - - - 10 - - 1.8 1026.5 0.2
26/07:00am ENE 3 4 - - - - 10 - - 3.1 1026.1 0.2
26/06:30am E 4 5 - - - - 10 - - 2.5 1026.2 0.2
26/06:00am E 5 6 - - - - 10 - - 3.0 1026.3 0.2
26/05:30am ENE 5 6 - - - - 10 - - 3.5 1026.6 0.2
26/05:00am ENE 3 4 - - - - 10 - - 3.4 1026.8 0.2
26/04:30am NE 6 10 - - - - 10 - - 3.6 1027.0 0.2
26/04:00am NNE 7 8 - - - - 10 - - 3.5 1027.4 0.2
26/03:30am ENE 3 5 - - - - 8 Partly cloudy - 3.0 1027.6 0.2
26/03:00am NE 3 4 - - - - 10 - Rain 3.8 1027.9 0.2
26/02:30am NE 4 5 - - - - 10 - - 4.4 1027.8 0.0
26/02:00am ENE 5 7 - - - - 10 - - 4.6 1027.9 0.0
26/01:30am NE 4 7 - - - - 10 - - 4.1 1028.0 0.0
26/01:00am NE 5 7 - - - - 10 - - 4.7 1028.0 0.0
26/12:30am NNE 5 6 - - - - 10 - - 4.8 1027.8 0.0
26/12:00am NE 5 6 - - - - 10 - - 4.7 1027.9 0.0
 
Date/Time
EST
Wind Sea
Height
m
Swell Vis
km
Cloud Weather Temp
°C
Press
hPa
Rain since
9am
mm
Dir  Spd
kts
Gust
kts
Height
m
Period
s
Dir
25/11:30pm NNE 6 8 - - - - 10 - - 5.0 1027.9 0.0
25/11:00pm NE 4 6 - - - - 10 - - 4.8 1028.0 0.0
25/10:30pm NNE 4 6 - - - - 10 - - 4.9 1028.1 0.0
25/10:00pm NNE 4 5 - - - - 10 - - 5.2 1027.8 0.0
25/09:30pm NE 5 6 - - - - 10 - - 6.0 1027.6 0.0
25/09:00pm NE 3 4 - - - - 10 - - 6.3 1027.8 0.0
25/08:30pm NNE 5 6 - - - - 10 - - 6.9 1027.7 0.0
25/08:00pm NNE 7 8 - - - - 10 Partly cloudy - 7.8 1027.6 0.0
25/07:30pm N 5 7 - - - - 10 Cloudy - 8.5 1027.7 0.0
25/07:00pm NNE 6 8 - - - - 10 Cloudy - 8.7 1027.8 0.0
25/06:30pm NNE 6 8 - - - - 10 Cloudy - 9.3 1027.7 0.0
25/06:00pm NE 5 6 - - - - 10 Cloudy - 9.6 1027.4 0.0
25/05:30pm NNE 4 6 - - - - 10 Cloudy - 9.7 1027.4 0.0
25/05:00pm NE 4 5 - - - - 10 Cloudy - 9.8 1027.0 0.0
25/04:30pm NE 4 5 - - - - 10 Cloudy - 10.1 1026.9 0.0
25/04:00pm NNE 4 6 - - - - 10 Cloudy - 10.5 1027.4 0.0
25/03:30pm W 4 5 - - - - 10 Cloudy - 10.6 1027.6 0.0
25/03:00pm NW 6 10 - - - - 10 Cloudy - 10.8 1027.7 0.0
25/02:30pm W 8 11 - - - - 10 Cloudy - 10.6 1027.6 0.0
25/02:00pm WNW 10 13 - - - - 10 Cloudy - 10.8 1027.0 0.0
25/01:30pm NW 8 11 - - - - 10 Partly cloudy - 11.3 1026.2 0.0
25/01:11pm NNW 7 11 - - - - 10 Partly cloudy - 11.3 1026.0 0.0
25/01:00pm WNW 6 8 - - - - 10 Partly cloudy - 11.5 1025.9 0.0
25/12:57pm WNW 5 8 - - - - 10 Partly cloudy - 11.5 1025.8 0.0
25/12:53pm NW 5 6 - - - - 10 Partly cloudy - 11.4 1025.8 0.0
25/12:36pm N 3 7 - - - - 10 Partly cloudy - 11.3 1025.7 0.0
25/12:30pm N 4 6 - - - - 10 Partly cloudy - 10.5 1025.7 0.0
25/12:29pm N 4 6 - - - - 10 Partly cloudy - 10.9 1025.7 0.0
25/12:00pm NNE 6 8 - - - - 10 Partly cloudy - 9.8 1025.9 0.0
25/11:56am NNE 7 10 - - - - 10 Partly cloudy - 10.0 1025.9 0.0
25/11:33am NNE 5 8 - - - - 10 Partly cloudy - 10.1 1026.5 0.0
25/11:30am NE 5 8 - - - - 10 Partly cloudy - 9.8 1026.6 0.0
25/11:00am NE 5 9 - - - - 10 Cloudy - 8.4 1027.1 0.0
25/10:30am NE 6 8 - - - - 10 Partly cloudy - 7.0 1027.6 0.0
25/10:00am NNE 4 6 - - - - 10 Cloudy - 6.4 1028.5 0.0
25/09:49am NE 1 4 - - - - 10 Cloudy - 6.4 1028.7 0.0
25/09:30am CALM 0 0 - - - - 2 Cloudy - 6.2 1028.7 0.0
25/09:00am CALM 0 0 - - - - 5 Cloudy - 5.6 1028.9 0.2
25/08:30am CALM 0 2 - - - - 5 Cloudy - 4.8 1028.8 0.2
25/08:29am CALM 0 2 - - - - 5 Cloudy - 4.8 1028.8 0.2
25/08:00am NE 2 4 - - - - 10 Cloudy - 4.5 1028.5 0.2
25/07:30am NE 4 6 - - - - 10 Cloudy - 4.4 1028.1 0.2
25/07:00am NE 3 5 - - - - 10 Cloudy - 3.6 1027.3 0.2
25/06:30am NE 2 5 - - - - 10 Cloudy - 3.0 1026.8 0.2
25/06:00am NNE 6 8 - - - - 10 Partly cloudy - 3.1 1026.5 0.2
25/05:54am NNE 7 8 - - - - 10 Partly cloudy - 2.8 1026.4 0.2
25/05:30am NNE 5 5 - - - - 10 - - 1.0 1026.0 0.2
25/05:00am NNE 1 4 - - - - 10 - - 1.0 1025.9 0.2
25/04:30am NNE 5 6 - - - - 10 - - 2.1 1025.4 0.2
25/04:00am NNE 6 7 - - - - 10 - - 3.1 1025.4 0.2
25/03:30am N 5 6 - - - - 10 - - 1.2 1025.7 0.2
25/03:00am NNE 5 6 - - - - 10 - - 1.7 1025.9 0.2
25/02:30am ENE 3 4 - - - - 10 - - 1.7 1026.0 0.2
25/02:00am E 3 3 - - - - 10 - - 1.7 1026.1 0.2
25/01:30am CALM 0 2 - - - - 10 - - 1.7 1026.2 0.2

Other formats

Comma delimited format used in spreadsheet applications
http://www.bom.gov.au/fwo/IDT60701/IDT60701.94956.axf

JavaScript Object Notation format (JSON) in row-major order
http://www.bom.gov.au/fwo/IDT60701/IDT60701.94956.json

Data quality

Most of these data are generated automatically and are frequently updated. Quality checks on data are not normally performed. It is possible for incorrect values to appear. Refer to information at About Latest Weather Observations and please check the disclaimer before using these data.